sensor_id;sensor_type;location;lat;lon;timestamp;pressure;altitude;pressure_sealevel;temperature;humidity
22572;BME280;11452;53.368;14.658;2023-01-01T00:02:31;100272.39;;;16.32;65.90
22572;BME280;11452;53.368;14.658;2023-01-01T00:07:38;100282.02;;;16.35;65.94
22572;BME280;11452;53.368;14.658;2023-01-01T00:12:43;100284.36;;;16.34;65.75
22572;BME280;11452;53.368;14.658;2023-01-01T00:17:49;100281.66;;;16.34;65.42
22572;BME280;11452;53.368;14.658;2023-01-01T00:22:54;100283.97;;;16.38;65.11
22572;BME280;11452;53.368;14.658;2023-01-01T00:28:00;100284.06;;;16.42;64.62
22572;BME280;11452;53.368;14.658;2023-01-01T00:33:06;100293.73;;;16.45;64.24
22572;BME280;11452;53.368;14.658;2023-01-01T00:38:12;100296.23;;;16.52;63.94
22572;BME280;11452;53.368;14.658;2023-01-01T00:43:17;100306.89;;;16.53;63.59
22572;BME280;11452;53.368;14.658;2023-01-01T00:48:23;100318.31;;;16.51;63.29
22572;BME280;11452;53.368;14.658;2023-01-01T00:53:29;100314.72;;;16.56;62.96
22572;BME280;11452;53.368;14.658;2023-01-01T00:58:35;100316.96;;;16.51;62.57
22572;BME280;11452;53.368;14.658;2023-01-01T01:03:40;100311.56;;;16.51;62.14
22572;BME280;11452;53.368;14.658;2023-01-01T01:08:46;100325.05;;;16.51;61.97
22572;BME280;11452;53.368;14.658;2023-01-01T01:13:54;100329.83;;;16.53;61.47
22572;BME280;11452;53.368;14.658;2023-01-01T01:19:02;100335.72;;;16.53;61.37
22572;BME280;11452;53.368;14.658;2023-01-01T01:24:09;100338.25;;;16.60;61.11
22572;BME280;11452;53.368;14.658;2023-01-01T01:29:14;100337.36;;;16.50;60.62
22572;BME280;11452;53.368;14.658;2023-01-01T01:34:20;100347.16;;;16.51;60.46
22572;BME280;11452;53.368;14.658;2023-01-01T01:39:27;100334.95;;;16.56;60.24
22572;BME280;11452;53.368;14.658;2023-01-01T01:44:51;100326.37;;;16.57;59.87
22572;BME280;11452;53.368;14.658;2023-01-01T01:50:36;100322.59;;;16.54;59.80
22572;BME280;11452;53.368;14.658;2023-01-01T01:55:14;100336.31;;;16.56;59.42
22572;BME280;11452;53.368;14.658;2023-01-01T02:00:19;100351.02;;;16.58;59.38
22572;BME280;11452;53.368;14.658;2023-01-01T02:05:25;100351.25;;;16.60;59.13
22572;BME280;11452;53.368;14.658;2023-01-01T02:10:31;100338.48;;;16.62;58.83
22572;BME280;11452;53.368;14.658;2023-01-01T02:15:40;100341.94;;;16.65;58.56
22572;BME280;11452;53.368;14.658;2023-01-01T02:20:53;100346.84;;;16.59;58.23
22572;BME280;11452;53.368;14.658;2023-01-01T02:31:29;100327.91;;;16.50;57.80
22572;BME280;11452;53.368;14.658;2023-01-01T02:36:30;100353.31;;;16.47;57.80
22572;BME280;11452;53.368;14.658;2023-01-01T02:41:38;100354.04;;;16.49;57.78
22572;BME280;11452;53.368;14.658;2023-01-01T02:46:45;100376.91;;;16.55;57.66
22572;BME280;11452;53.368;14.658;2023-01-01T02:52:13;100382.08;;;16.52;57.56
22572;BME280;11452;53.368;14.658;2023-01-01T03:08:12;100372.02;;;16.34;57.45
22572;BME280;11452;53.368;14.658;2023-01-01T03:13:25;100376.41;;;16.40;57.35
22572;BME280;11452;53.368;14.658;2023-01-01T03:23:44;100338.00;;;16.27;57.35
22572;BME280;11452;53.368;14.658;2023-01-01T03:28:54;100350.87;;;16.29;57.36
22572;BME280;11452;53.368;14.658;2023-01-01T03:34:03;100336.78;;;16.25;57.23
22572;BME280;11452;53.368;14.658;2023-01-01T03:39:16;100349.95;;;16.34;57.18
22572;BME280;11452;53.368;14.658;2023-01-01T03:44:29;100354.66;;;16.32;57.00
22572;BME280;11452;53.368;14.658;2023-01-01T03:49:35;100367.69;;;16.42;56.82
22572;BME280;11452;53.368;14.658;2023-01-01T03:55:05;100371.87;;;16.41;56.72
22572;BME280;11452;53.368;14.658;2023-01-01T04:00:23;100374.39;;;16.33;56.50
22572;BME280;11452;53.368;14.658;2023-01-01T04:05:24;100383.72;;;16.28;56.62
22572;BME280;11452;53.368;14.658;2023-01-01T04:10:33;100393.40;;;16.31;56.54
22572;BME280;11452;53.368;14.658;2023-01-01T04:15:39;100395.28;;;16.19;56.45
22572;BME280;11452;53.368;14.658;2023-01-01T04:20:45;100400.89;;;16.27;56.37
22572;BME280;11452;53.368;14.658;2023-01-01T04:25:50;100399.28;;;16.31;56.13
22572;BME280;11452;53.368;14.658;2023-01-01T04:31:00;100413.83;;;16.34;56.13
22572;BME280;11452;53.368;14.658;2023-01-01T04:36:08;100402.91;;;16.35;55.95
22572;BME280;11452;53.368;14.658;2023-01-01T04:41:13;100391.76;;;16.34;56.05
22572;BME280;11452;53.368;14.658;2023-01-01T04:46:20;100378.77;;;16.34;55.85
22572;BME280;11452;53.368;14.658;2023-01-01T04:51:26;100417.67;;;16.31;55.73
22572;BME280;11452;53.368;14.658;2023-01-01T04:56:32;100416.03;;;16.34;55.78
22572;BME280;11452;53.368;14.658;2023-01-01T05:01:37;100416.64;;;16.38;55.58
22572;BME280;11452;53.368;14.658;2023-01-01T05:06:43;100426.67;;;16.41;55.41
22572;BME280;11452;53.368;14.658;2023-01-01T05:11:49;100427.41;;;16.43;55.22
22572;BME280;11452;53.368;14.658;2023-01-01T05:16:54;100429.76;;;16.37;55.22
22572;BME280;11452;53.368;14.658;2023-01-01T05:22:00;100426.13;;;16.32;55.10
22572;BME280;11452;53.368;14.658;2023-01-01T05:27:07;100431.96;;;16.37;55.06
22572;BME280;11452;53.368;14.658;2023-01-01T05:32:13;100431.21;;;16.41;54.97
22572;BME280;11452;53.368;14.658;2023-01-01T05:37:17;100434.41;;;16.40;54.86
22572;BME280;11452;53.368;14.658;2023-01-01T05:42:23;100433.66;;;16.44;54.79
22572;BME280;11452;53.368;14.658;2023-01-01T05:47:28;100442.62;;;16.39;54.65
22572;BME280;11452;53.368;14.658;2023-01-01T05:52:35;100444.52;;;16.33;54.67
22572;BME280;11452;53.368;14.658;2023-01-01T05:57:41;100438.52;;;16.29;54.63
22572;BME280;11452;53.368;14.658;2023-01-01T06:02:46;100441.22;;;16.29;54.62
22572;BME280;11452;53.368;14.658;2023-01-01T06:07:54;100446.48;;;16.31;54.64
22572;BME280;11452;53.368;14.658;2023-01-01T06:12:59;100444.67;;;16.20;54.62
22572;BME280;11452;53.368;14.658;2023-01-01T06:18:05;100445.39;;;16.27;54.73
22572;BME280;11452;53.368;14.658;2023-01-01T06:23:10;100450.80;;;16.22;54.52
22572;BME280;11452;53.368;14.658;2023-01-01T06:28:16;100463.54;;;16.25;54.54
22572;BME280;11452;53.368;14.658;2023-01-01T06:33:21;100467.59;;;16.25;54.50
22572;BME280;11452;53.368;14.658;2023-01-01T06:38:27;100461.69;;;16.32;54.36
22572;BME280;11452;53.368;14.658;2023-01-01T06:43:34;100460.95;;;16.30;54.30
22572;BME280;11452;53.368;14.658;2023-01-01T06:48:40;100457.41;;;16.29;54.17
22572;BME280;11452;53.368;14.658;2023-01-01T06:53:47;100467.08;;;16.32;54.07
22572;BME280;11452;53.368;14.658;2023-01-01T06:58:53;100474.19;;;16.33;53.89
22572;BME280;11452;53.368;14.658;2023-01-01T07:04:03;100480.94;;;16.33;53.75
22572;BME280;11452;53.368;14.658;2023-01-01T07:09:09;100481.34;;;16.49;53.82
22572;BME280;11452;53.368;14.658;2023-01-01T07:14:15;100484.42;;;16.44;53.55
22572;BME280;11452;53.368;14.658;2023-01-01T07:19:20;100490.28;;;16.76;53.80
22572;BME280;11452;53.368;14.658;2023-01-01T07:24:26;100504.02;;;16.78;53.53
22572;BME280;11452;53.368;14.658;2023-01-01T07:29:31;100518.36;;;16.79;53.53
22572;BME280;11452;53.368;14.658;2023-01-01T07:34:37;100515.05;;;16.81;53.41
22572;BME280;11452;53.368;14.658;2023-01-01T07:39:42;100534.07;;;16.79;53.25
22572;BME280;11452;53.368;14.658;2023-01-01T07:44:48;100535.94;;;16.73;52.91
22572;BME280;11452;53.368;14.658;2023-01-01T07:49:53;100549.97;;;16.67;52.48
22572;BME280;11452;53.368;14.658;2023-01-01T07:54:59;100552.30;;;16.55;52.48
22572;BME280;11452;53.368;14.658;2023-01-01T08:00:05;100554.08;;;16.45;52.77
22572;BME280;11452;53.368;14.658;2023-01-01T08:05:13;100568.49;;;16.55;52.45
22572;BME280;11452;53.368;14.658;2023-01-01T08:10:20;100562.43;;;16.36;52.54
22572;BME280;11452;53.368;14.658;2023-01-01T08:15:26;100578.48;;;16.38;52.57
22572;BME280;11452;53.368;14.658;2023-01-01T08:20:33;100586.95;;;16.39;52.63
22572;BME280;11452;53.368;14.658;2023-01-01T08:25:38;100591.36;;;16.40;52.66
22572;BME280;11452;53.368;14.658;2023-01-01T08:30:44;100603.26;;;16.37;52.76
22572;BME280;11452;53.368;14.658;2023-01-01T08:35:49;100611.96;;;16.41;52.81
22572;BME280;11452;53.368;14.658;2023-01-01T08:40:56;100627.89;;;16.49;52.67
22572;BME280;11452;53.368;14.658;2023-01-01T08:46:02;100621.89;;;16.46;52.70
22572;BME280;11452;53.368;14.658;2023-01-01T08:51:09;100635.75;;;16.41;52.89
22572;BME280;11452;53.368;14.658;2023-01-01T08:56:14;100633.17;;;16.45;52.91
22572;BME280;11452;53.368;14.658;2023-01-01T09:01:20;100616.82;;;16.52;52.87
22572;BME280;11452;53.368;14.658;2023-01-01T09:06:26;100621.27;;;16.48;52.83
22572;BME280;11452;53.368;14.658;2023-01-01T09:11:31;100638.08;;;16.46;52.85
22572;BME280;11452;53.368;14.658;2023-01-01T09:16:37;100650.34;;;16.44;52.87
22572;BME280;11452;53.368;14.658;2023-01-01T09:21:45;100643.59;;;16.44;52.99
22572;BME280;11452;53.368;14.658;2023-01-01T09:26:50;100663.95;;;16.43;52.88
22572;BME280;11452;53.368;14.658;2023-01-01T09:31:56;100662.76;;;16.30;53.02
22572;BME280;11452;53.368;14.658;2023-01-01T09:37:01;100676.83;;;16.45;53.16
22572;BME280;11452;53.368;14.658;2023-01-01T09:42:32;100675.84;;;16.46;52.89
22572;BME280;11452;53.368;14.658;2023-01-01T09:47:45;100676.59;;;16.48;52.95
22572;BME280;11452;53.368;14.658;2023-01-01T09:52:56;100686.12;;;16.52;52.80
22572;BME280;11452;53.368;14.658;2023-01-01T09:58:02;100687.22;;;16.55;52.81
22572;BME280;11452;53.368;14.658;2023-01-01T10:03:18;100692.25;;;16.54;52.80
22572;BME280;11452;53.368;14.658;2023-01-01T10:13:39;100702.92;;;16.55;53.00
22572;BME280;11452;53.368;14.658;2023-01-01T10:18:53;100718.53;;;16.46;52.94
22572;BME280;11452;53.368;14.658;2023-01-01T10:23:58;100703.94;;;16.66;52.92
22572;BME280;11452;53.368;14.658;2023-01-01T10:29:13;100695.93;;;16.58;53.01
22572;BME280;11452;53.368;14.658;2023-01-01T10:34:24;100712.98;;;16.59;53.10
22572;BME280;11452;53.368;14.658;2023-01-01T10:39:29;100719.48;;;16.62;52.99
22572;BME280;11452;53.368;14.658;2023-01-01T10:44:35;100724.67;;;16.65;53.07
22572;BME280;11452;53.368;14.658;2023-01-01T10:49:56;100728.92;;;16.73;52.99
22572;BME280;11452;53.368;14.658;2023-01-01T10:55:03;100717.14;;;16.80;52.92
22572;BME280;11452;53.368;14.658;2023-01-01T11:00:25;100722.78;;;16.82;52.89
22572;BME280;11452;53.368;14.658;2023-01-01T11:05:30;100726.91;;;16.92;52.82
22572;BME280;11452;53.368;14.658;2023-01-01T11:10:36;100725.08;;;16.92;52.53
22572;BME280;11452;53.368;14.658;2023-01-01T11:15:42;100723.59;;;17.00;52.60
22572;BME280;11452;53.368;14.658;2023-01-01T11:20:58;100732.63;;;17.10;52.26
22572;BME280;11452;53.368;14.658;2023-01-01T11:31:33;100733.46;;;17.21;52.41
22572;BME280;11452;53.368;14.658;2023-01-01T11:36:34;100751.96;;;17.26;52.24
22572;BME280;11452;53.368;14.658;2023-01-01T11:41:45;100758.56;;;17.39;52.03
22572;BME280;11452;53.368;14.658;2023-01-01T11:46:51;100759.91;;;17.39;51.73
22572;BME280;11452;53.368;14.658;2023-01-01T11:51:57;100751.45;;;17.32;51.66
22572;BME280;11452;53.368;14.658;2023-01-01T11:57:12;100767.84;;;17.19;51.61
22572;BME280;11452;53.368;14.658;2023-01-01T12:02:31;100786.95;;;17.33;51.58
22572;BME280;11452;53.368;14.658;2023-01-01T12:07:34;100776.39;;;17.30;51.41
22572;BME280;11452;53.368;14.658;2023-01-01T12:12:46;100808.94;;;17.28;51.52
22572;BME280;11452;53.368;14.658;2023-01-01T12:23:08;100767.47;;;17.24;51.67
22572;BME280;11452;53.368;14.658;2023-01-01T12:28:23;100764.53;;;17.21;51.67
22572;BME280;11452;53.368;14.658;2023-01-01T12:49:32;100786.44;;;16.96;52.34
22572;BME280;11452;53.368;14.658;2023-01-01T12:59:59;100809.52;;;16.94;52.28
22572;BME280;11452;53.368;14.658;2023-01-01T13:05:09;100824.73;;;16.95;52.33
22572;BME280;11452;53.368;14.658;2023-01-01T13:10:28;100826.23;;;16.83;52.44
22572;BME280;11452;53.368;14.658;2023-01-01T13:20:56;100841.92;;;17.00;53.60
22572;BME280;11452;53.368;14.658;2023-01-01T13:36:47;100851.16;;;16.64;52.62
22572;BME280;11452;53.368;14.658;2023-01-01T13:41:52;100881.16;;;16.59;52.72
22572;BME280;11452;53.368;14.658;2023-01-01T13:47:03;100896.11;;;16.52;52.85
22572;BME280;11452;53.368;14.658;2023-01-01T13:52:32;100910.22;;;16.45;52.85
22572;BME280;11452;53.368;14.658;2023-01-01T14:03:10;100941.73;;;16.44;52.97
22572;BME280;11452;53.368;14.658;2023-01-01T14:08:37;100950.18;;;16.40;53.11
22572;BME280;11452;53.368;14.658;2023-01-01T14:13:40;100961.34;;;16.41;53.18
22572;BME280;11452;53.368;14.658;2023-01-01T14:18:48;100977.99;;;16.35;53.34
22572;BME280;11452;53.368;14.658;2023-01-01T14:23:56;100959.22;;;16.33;53.44
22572;BME280;11452;53.368;14.658;2023-01-01T14:29:07;100971.97;;;16.25;53.53
22572;BME280;11452;53.368;14.658;2023-01-01T14:39:35;100977.55;;;16.11;53.89
22572;BME280;11452;53.368;14.658;2023-01-01T14:44:43;100985.57;;;16.00;54.28
22572;BME280;11452;53.368;14.658;2023-01-01T14:49:49;100997.81;;;15.99;54.39
22572;BME280;11452;53.368;14.658;2023-01-01T14:54:58;101013.02;;;15.94;54.48
22572;BME280;11452;53.368;14.658;2023-01-01T15:00:22;101023.11;;;15.85;54.72
22572;BME280;11452;53.368;14.658;2023-01-01T15:05:31;101012.76;;;15.73;54.90
22572;BME280;11452;53.368;14.658;2023-01-01T15:10:38;101027.09;;;15.74;54.88
22572;BME280;11452;53.368;14.658;2023-01-01T15:15:46;101033.19;;;15.70;54.94
22572;BME280;11452;53.368;14.658;2023-01-01T15:20:53;101034.09;;;15.58;55.08
22572;BME280;11452;53.368;14.658;2023-01-01T15:26:00;101028.30;;;15.44;55.42
22572;BME280;11452;53.368;14.658;2023-01-01T15:31:06;101038.96;;;15.46;55.72
22572;BME280;11452;53.368;14.658;2023-01-01T15:36:11;101053.94;;;15.50;55.82
22572;BME280;11452;53.368;14.658;2023-01-01T15:41:42;101055.91;;;15.35;56.02
22572;BME280;11452;53.368;14.658;2023-01-01T15:46:49;101054.34;;;15.38;56.22
22572;BME280;11452;53.368;14.658;2023-01-01T15:52:03;101065.92;;;15.33;56.24
22572;BME280;11452;53.368;14.658;2023-01-01T15:57:20;101078.54;;;15.20;56.52
22572;BME280;11452;53.368;14.658;2023-01-01T16:02:31;101079.82;;;15.14;56.61
22572;BME280;11452;53.368;14.658;2023-01-01T16:07:40;101083.96;;;15.13;56.57
22572;BME280;11452;53.368;14.658;2023-01-01T16:12:46;101087.14;;;15.00;56.79
22572;BME280;11452;53.368;14.658;2023-01-01T16:17:52;101089.34;;;15.00;56.70
22572;BME280;11452;53.368;14.658;2023-01-01T16:22:58;101089.27;;;14.95;56.79
22572;BME280;11452;53.368;14.658;2023-01-01T16:28:04;101099.75;;;14.79;56.93
22572;BME280;11452;53.368;14.658;2023-01-01T16:33:15;101105.21;;;14.65;57.15
22572;BME280;11452;53.368;14.658;2023-01-01T16:38:21;101121.85;;;14.58;57.30
22572;BME280;11452;53.368;14.658;2023-01-01T16:43:26;101113.90;;;14.49;57.42
22572;BME280;11452;53.368;14.658;2023-01-01T16:48:32;101114.91;;;14.41;57.57
22572;BME280;11452;53.368;14.658;2023-01-01T16:53:38;101125.45;;;14.30;57.87
22572;BME280;11452;53.368;14.658;2023-01-01T16:58:46;101143.93;;;14.29;57.99
22572;BME280;11452;53.368;14.658;2023-01-01T17:03:53;101149.98;;;14.11;58.45
22572;BME280;11452;53.368;14.658;2023-01-01T17:08:59;101155.36;;;14.11;58.56
22572;BME280;11452;53.368;14.658;2023-01-01T17:14:05;101154.88;;;14.11;58.86
22572;BME280;11452;53.368;14.658;2023-01-01T17:19:11;101174.08;;;14.12;59.04
22572;BME280;11452;53.368;14.658;2023-01-01T17:24:20;101180.55;;;14.03;59.44
22572;BME280;11452;53.368;14.658;2023-01-01T17:29:25;101186.50;;;14.08;59.53
22572;BME280;11452;53.368;14.658;2023-01-01T17:34:30;101191.11;;;14.06;59.67
22572;BME280;11452;53.368;14.658;2023-01-01T17:39:36;101184.58;;;14.10;59.86
22572;BME280;11452;53.368;14.658;2023-01-01T17:44:43;101188.87;;;14.12;60.07
22572;BME280;11452;53.368;14.658;2023-01-01T17:49:48;101193.19;;;14.15;60.39
22572;BME280;11452;53.368;14.658;2023-01-01T17:54:54;101193.00;;;14.18;60.70
22572;BME280;11452;53.368;14.658;2023-01-01T17:59:59;101193.67;;;14.14;61.08
22572;BME280;11452;53.368;14.658;2023-01-01T18:05:08;101197.41;;;14.12;61.37
22572;BME280;11452;53.368;14.658;2023-01-01T18:10:13;101198.69;;;14.06;61.81
22572;BME280;11452;53.368;14.658;2023-01-01T18:15:20;101196.38;;;14.07;62.19
22572;BME280;11452;53.368;14.658;2023-01-01T18:20:26;101208.39;;;14.09;62.51
22572;BME280;11452;53.368;14.658;2023-01-01T18:25:31;101204.48;;;15.22;60.01
22572;BME280;11452;53.368;14.658;2023-01-01T18:30:37;101210.93;;;14.39;62.22
22572;BME280;11452;53.368;14.658;2023-01-01T18:35:42;101205.20;;;14.24;62.92
22572;BME280;11452;53.368;14.658;2023-01-01T18:41:01;101219.86;;;14.39;63.32
22572;BME280;11452;53.368;14.658;2023-01-01T18:45:56;101217.34;;;15.11;61.12
22572;BME280;11452;53.368;14.658;2023-01-01T18:51:12;101218.74;;;14.43;63.30
22572;BME280;11452;53.368;14.658;2023-01-01T18:56:16;101233.43;;;14.24;64.06
22572;BME280;11452;53.368;14.658;2023-01-01T19:01:23;101233.34;;;14.04;64.79
22572;BME280;11452;53.368;14.658;2023-01-01T19:06:31;101227.19;;;14.02;65.10
22572;BME280;11452;53.368;14.658;2023-01-01T19:11:37;101241.39;;;13.97;65.43
22572;BME280;11452;53.368;14.658;2023-01-01T19:16:44;101245.91;;;13.96;65.43
22572;BME280;11452;53.368;14.658;2023-01-01T19:21:53;101240.63;;;13.88;65.78
22572;BME280;11452;53.368;14.658;2023-01-01T19:32:17;101237.84;;;13.82;66.46
22572;BME280;11452;53.368;14.658;2023-01-01T19:37:24;101245.40;;;13.75;66.61
22572;BME280;11452;53.368;14.658;2023-01-01T19:42:29;101249.73;;;13.71;66.81
22572;BME280;11452;53.368;14.658;2023-01-01T19:47:35;101244.64;;;13.66;66.97
22572;BME280;11452;53.368;14.658;2023-01-01T19:52:41;101256.06;;;13.70;67.37
22572;BME280;11452;53.368;14.658;2023-01-01T19:57:48;101257.11;;;13.67;67.25
22572;BME280;11452;53.368;14.658;2023-01-01T20:02:57;101251.83;;;13.66;67.29
22572;BME280;11452;53.368;14.658;2023-01-01T20:08:06;101250.40;;;13.67;67.36
22572;BME280;11452;53.368;14.658;2023-01-01T20:13:12;101257.68;;;13.65;67.43
22572;BME280;11452;53.368;14.658;2023-01-01T20:18:19;101267.47;;;13.66;67.46
22572;BME280;11452;53.368;14.658;2023-01-01T20:23:25;101263.32;;;13.61;67.60
22572;BME280;11452;53.368;14.658;2023-01-01T20:28:33;101251.17;;;13.69;67.72
22572;BME280;11452;53.368;14.658;2023-01-01T20:33:58;101253.55;;;13.74;67.69
22572;BME280;11452;53.368;14.658;2023-01-01T20:39:03;101246.09;;;13.72;67.79
22572;BME280;11452;53.368;14.658;2023-01-01T20:44:09;101246.27;;;13.76;67.79
22572;BME280;11452;53.368;14.658;2023-01-01T20:49:15;101239.94;;;13.77;67.67
22572;BME280;11452;53.368;14.658;2023-01-01T20:54:22;101245.49;;;13.74;67.64
22572;BME280;11452;53.368;14.658;2023-01-01T20:59:27;101253.48;;;13.82;67.78
22572;BME280;11452;53.368;14.658;2023-01-01T21:04:36;101264.32;;;13.81;67.92
22572;BME280;11452;53.368;14.658;2023-01-01T21:09:43;101260.56;;;13.76;67.50
22572;BME280;11452;53.368;14.658;2023-01-01T21:14:49;101253.08;;;13.74;67.82
22572;BME280;11452;53.368;14.658;2023-01-01T21:19:56;101253.46;;;13.75;68.09
22572;BME280;11452;53.368;14.658;2023-01-01T21:25:08;101262.02;;;13.82;68.09
22572;BME280;11452;53.368;14.658;2023-01-01T21:30:13;101260.77;;;13.80;68.17
22572;BME280;11452;53.368;14.658;2023-01-01T21:35:33;101263.64;;;13.77;68.09
22572;BME280;11452;53.368;14.658;2023-01-01T21:40:52;101250.91;;;13.88;68.53
22572;BME280;11452;53.368;14.658;2023-01-01T21:56:35;101238.98;;;13.92;68.45
22572;BME280;11452;53.368;14.658;2023-01-01T22:01:43;101242.25;;;13.97;68.48
22572;BME280;11452;53.368;14.658;2023-01-01T22:06:52;101241.09;;;13.94;68.04
22572;BME280;11452;53.368;14.658;2023-01-01T22:17:26;101220.84;;;13.96;68.22
22572;BME280;11452;53.368;14.658;2023-01-01T22:22:34;101230.56;;;13.91;68.10
22572;BME280;11452;53.368;14.658;2023-01-01T22:27:40;101223.27;;;13.86;68.36
22572;BME280;11452;53.368;14.658;2023-01-01T22:32:51;101208.74;;;13.74;68.33
22572;BME280;11452;53.368;14.658;2023-01-01T22:38:03;101213.55;;;13.76;68.90
22572;BME280;11452;53.368;14.658;2023-01-01T22:43:18;101213.66;;;13.82;68.84
22572;BME280;11452;53.368;14.658;2023-01-01T22:53:40;101206.37;;;13.84;69.40
22572;BME280;11452;53.368;14.658;2023-01-01T22:58:45;101196.59;;;13.90;69.33
22572;BME280;11452;53.368;14.658;2023-01-01T23:03:52;101190.52;;;13.94;69.42
22572;BME280;11452;53.368;14.658;2023-01-01T23:09:00;101189.65;;;13.93;69.02
22572;BME280;11452;53.368;14.658;2023-01-01T23:14:08;101198.09;;;13.94;68.99
22572;BME280;11452;53.368;14.658;2023-01-01T23:19:32;101195.22;;;13.97;69.04
22572;BME280;11452;53.368;14.658;2023-01-01T23:24:37;101185.15;;;14.01;69.27
22572;BME280;11452;53.368;14.658;2023-01-01T23:29:45;101191.75;;;14.16;68.45
22572;BME280;11452;53.368;14.658;2023-01-01T23:34:51;101182.66;;;14.05;68.72
22572;BME280;11452;53.368;14.658;2023-01-01T23:39:57;101181.98;;;14.08;69.13
22572;BME280;11452;53.368;14.658;2023-01-01T23:45:03;101185.25;;;14.06;68.89
22572;BME280;11452;53.368;14.658;2023-01-01T23:50:09;101182.65;;;13.98;68.40
22572;BME280;11452;53.368;14.658;2023-01-01T23:55:16;101176.31;;;13.99;69.00
